createdAt,value
2023-05-21T00:17:19.044Z,99195.13
2023-05-21T00:27:22.886Z,99194.68
2023-05-21T00:37:29.197Z,99190.39
2023-05-21T00:47:33.661Z,99189.83
2023-05-21T00:57:38.571Z,99189.22
2023-05-21T01:07:42.874Z,99182.52
2023-05-21T01:17:51.070Z,99163.83
2023-05-21T01:27:55.999Z,99151.63
2023-05-21T01:38:12.281Z,99144.78
2023-05-21T01:48:17.391Z,99135.04
2023-05-21T01:58:22.312Z,99127.27
2023-05-21T02:08:26.866Z,99116.44
2023-05-21T02:18:30.344Z,99111.14
2023-05-21T02:28:35.606Z,99107.35
2023-05-21T02:38:40.056Z,99107.11
2023-05-21T02:48:43.903Z,99105.67
2023-05-21T02:58:47.408Z,99094.00
2023-05-21T03:08:50.983Z,99086.50
2023-05-21T03:18:54.620Z,99083.28
2023-05-21T03:28:58.572Z,99085.77
2023-05-21T03:39:03.182Z,99087.89
2023-05-21T03:49:10.103Z,99082.20
2023-05-21T03:59:14.358Z,99083.35
2023-05-21T04:09:17.978Z,99087.59
2023-05-21T04:29:29.462Z,99076.63
2023-05-21T04:39:34.168Z,99077.14
2023-05-21T04:49:37.874Z,99071.61
2023-05-21T04:59:43.449Z,99078.46
2023-05-21T05:09:47.112Z,99078.04
2023-05-21T05:19:50.934Z,99073.34
2023-05-21T05:29:54.480Z,99073.29
2023-05-21T05:39:58.271Z,99069.00
2023-05-21T05:50:01.807Z,99060.14
2023-05-21T06:00:09.967Z,99055.25
2023-05-21T06:10:17.010Z,99050.08
2023-05-21T06:20:24.525Z,99052.39
2023-05-21T06:30:27.529Z,99057.98
2023-05-21T06:40:31.260Z,99055.00
2023-05-21T06:50:35.324Z,99052.88
2023-05-21T07:00:39.100Z,99053.55
2023-05-21T07:10:43.262Z,99057.98
2023-05-21T07:20:47.541Z,99053.83
2023-05-21T07:30:51.309Z,99047.02
2023-05-21T07:40:55.089Z,99049.21
2023-05-21T07:51:03.712Z,99043.29
2023-05-21T08:01:06.939Z,99041.07
2023-05-21T08:11:10.699Z,99038.52
2023-05-21T08:21:18.214Z,99040.27
2023-05-21T08:31:20.698Z,99035.29
2023-05-21T08:41:36.868Z,99030.31
2023-05-21T08:51:41.319Z,99029.86
2023-05-21T09:01:46.444Z,99028.34
2023-05-21T09:11:55.068Z,99028.20
2023-05-21T09:22:01.591Z,99032.66
2023-05-21T09:32:07.742Z,99025.75
2023-05-21T09:42:11.599Z,99019.16
2023-05-21T09:52:23.401Z,99025.98
2023-05-21T10:02:27.936Z,99015.47
2023-05-21T10:12:33.511Z,99010.89
2023-05-21T10:22:37.972Z,98996.02
2023-05-21T10:32:47.733Z,98987.12
2023-05-21T10:43:18.670Z,98980.60
2023-05-21T10:53:25.323Z,98975.73
2023-05-21T11:03:35.793Z,98963.21
2023-05-21T11:13:48.226Z,98963.45
2023-05-21T11:23:52.868Z,98953.52
2023-05-21T11:34:11.977Z,98949.05
2023-05-21T11:44:19.330Z,98947.52
2023-05-21T11:54:27.726Z,98940.05
2023-05-21T12:04:30.963Z,98937.91
2023-05-21T12:14:33.975Z,98931.96
2023-05-21T12:24:38.992Z,98924.35
2023-05-21T12:34:44.983Z,98919.73
2023-05-21T12:44:49.207Z,98925.69
2023-05-21T12:54:54.405Z,98914.92
2023-05-21T13:04:59.755Z,98909.86
2023-05-21T13:15:06.216Z,98907.77
2023-05-21T13:25:33.996Z,98902.10
2023-05-21T13:35:37.694Z,98904.98
2023-05-21T13:45:41.349Z,98892.27
2023-05-21T13:55:44.992Z,98891.81
2023-05-21T14:05:53.066Z,98882.81
2023-05-21T14:15:56.752Z,98880.20
2023-05-21T14:26:00.640Z,98876.32
2023-05-21T14:36:03.892Z,98866.92
2023-05-21T14:46:07.720Z,98864.36
2023-05-21T14:56:11.689Z,98853.98
2023-05-21T15:06:19.279Z,98851.81
2023-05-21T15:16:22.629Z,98856.13
2023-05-21T15:26:30.266Z,98866.61
2023-05-21T15:36:34.345Z,98871.27
2023-05-21T15:46:37.685Z,98863.23
2023-05-21T15:56:43.301Z,98859.89
2023-05-21T16:06:47.240Z,98852.92
2023-05-21T16:16:54.399Z,98855.08
2023-05-21T16:26:58.765Z,98850.84
2023-05-21T16:37:02.574Z,98854.00
2023-05-21T16:47:06.083Z,98856.75
2023-05-21T16:57:10.039Z,98858.32
2023-05-21T17:07:15.224Z,98868.08
2023-05-21T17:17:18.829Z,98867.20
2023-05-21T17:27:22.551Z,98868.44
2023-05-21T17:37:26.263Z,98866.98
2023-05-21T17:47:29.948Z,98865.91
2023-05-21T17:57:33.470Z,98866.94
2023-05-21T18:07:37.302Z,98867.16
2023-05-21T18:17:50.597Z,98878.95
2023-05-21T18:27:54.305Z,98884.55
2023-05-21T18:38:00.528Z,98891.18
2023-05-21T18:48:04.079Z,98893.70
2023-05-21T18:58:32.608Z,98894.38
2023-05-21T19:08:36.330Z,98906.27
2023-05-21T19:18:48.170Z,98915.91
2023-05-21T19:28:51.597Z,98931.09
2023-05-21T19:38:58.314Z,98936.48
2023-05-21T19:49:01.962Z,98932.98
2023-05-21T19:59:05.781Z,98926.66
2023-05-21T20:09:09.498Z,98916.23
2023-05-21T20:19:14.669Z,98904.95
2023-05-21T20:29:18.679Z,98909.44
2023-05-21T20:39:47.744Z,98919.62
2023-05-21T20:49:53.305Z,98921.23
2023-05-21T20:59:57.342Z,98932.80
2023-05-21T21:10:01.660Z,98929.88
2023-05-21T21:20:07.867Z,98937.85
2023-05-21T21:30:14.907Z,98942.09
2023-05-21T21:40:17.857Z,98939.80
2023-05-21T21:50:21.842Z,98934.86
2023-05-21T22:00:25.852Z,98925.99
2023-05-21T22:10:37.532Z,98923.84
2023-05-21T22:20:45.906Z,98919.85
2023-05-21T22:30:49.661Z,98918.06
2023-05-21T22:40:53.517Z,98927.04
2023-05-21T22:50:58.129Z,98928.52
2023-05-21T23:01:02.764Z,98922.44
2023-05-21T23:11:05.118Z,98920.48
2023-05-21T23:21:08.902Z,98916.98
2023-05-21T23:31:17.380Z,98912.92
2023-05-21T23:41:22.498Z,98912.55
2023-05-21T23:51:27.045Z,98909.89
